C827TY CYXU-CYXU
Flight info
| Callsign | C827TY |
|---|---|
| Flight time | 0h 3m |
| Altitude | 2000 |
| Route | VFR CIRCUITS |
| Aircraft | C172 |
Departure
| Time | 2026-04-24 02:07 |
|---|---|
| Airport | London International Airport (CYXU) |
Arrival
| Time | 2026-04-24 02:10 |
|---|---|
| Airport | London International Airport (CYXU) |
| Time | Latitude | Longitude | Altitude | Speed | Heading |
|---|---|---|---|---|---|
| 2026-04-24 01:41 | 43.03561 | -81.16314 | 909 ft | 0 kts | 264° |
| 2026-04-24 01:45 | 43.03561 | -81.16318 | 909 ft | 2 kts | 268° |
| 2026-04-24 01:45 | 43.03593 | -81.16323 | 910 ft | 7 kts | 23° |
| 2026-04-24 01:45 | 43.03627 | -81.16274 | 910 ft | 12 kts | 81° |
| 2026-04-24 01:46 | 43.03649 | -81.16125 | 909 ft | 20 kts | 79° |
| 2026-04-24 01:46 | 43.03671 | -81.15971 | 908 ft | 16 kts | 78° |
| 2026-04-24 01:46 | 43.03696 | -81.15797 | 906 ft | 10 kts | 76° |
| 2026-04-24 01:46 | 43.03734 | -81.15733 | 907 ft | 10 kts | 341° |
| 2026-04-24 01:47 | 43.03806 | -81.15817 | 908 ft | 18 kts | 319° |
| 2026-04-24 01:47 | 43.03924 | -81.15957 | 910 ft | 25 kts | 319° |
| 2026-04-24 01:47 | 43.03964 | -81.16001 | 911 ft | 1 kts | 324° |
| 2026-04-24 01:47 | 43.03964 | -81.16002 | 911 ft | 0 kts | 324° |
| 2026-04-24 01:48 | 43.03966 | -81.16003 | 911 ft | 2 kts | 323° |
| 2026-04-24 01:48 | 43.04009 | -81.16016 | 914 ft | 11 kts | 1° |
| 2026-04-24 01:48 | 43.04110 | -81.15985 | 918 ft | 18 kts | 43° |
| 2026-04-24 01:49 | 43.04094 | -81.15845 | 915 ft | 22 kts | 138° |
| 2026-04-24 01:49 | 43.04060 | -81.15804 | 914 ft | 0 kts | 140° |
| 2026-04-24 01:49 | 43.04028 | -81.15766 | 913 ft | 24 kts | 139° |
| 2026-04-24 01:49 | 43.03885 | -81.15595 | 910 ft | 57 kts | 137° |
| 2026-04-24 01:50 | 43.03507 | -81.15125 | 940 ft | 88 kts | 135° |
| 2026-04-24 01:50 | 43.03056 | -81.14549 | 1113 ft | 92 kts | 137° |
| 2026-04-24 01:50 | 43.02539 | -81.13916 | 1148 ft | 103 kts | 148° |
| 2026-04-24 01:50 | 43.01860 | -81.13809 | 1111 ft | 100 kts | 199° |
| 2026-04-24 01:51 | 43.01406 | -81.14468 | 1100 ft | 94 kts | 252° |
| 2026-04-24 01:51 | 43.01207 | -81.15291 | 1141 ft | 86 kts | 247° |
| 2026-04-24 01:51 | 43.01410 | -81.15990 | 1158 ft | 88 kts | 323° |
| 2026-04-24 01:51 | 43.01909 | -81.16501 | 1154 ft | 89 kts | 325° |
| 2026-04-24 01:52 | 43.02391 | -81.16969 | 1175 ft | 83 kts | 326° |
| 2026-04-24 01:52 | 43.02866 | -81.17414 | 1175 ft | 82 kts | 327° |
| 2026-04-24 01:52 | 43.03354 | -81.17826 | 1151 ft | 81 kts | 330° |
| 2026-04-24 01:52 | 43.03840 | -81.18197 | 1138 ft | 78 kts | 331° |
| 2026-04-24 01:53 | 43.04310 | -81.18392 | 1146 ft | 70 kts | 18° |
| 2026-04-24 01:53 | 43.04712 | -81.18035 | 1186 ft | 75 kts | 46° |
| 2026-04-24 01:53 | 43.04909 | -81.17420 | 1259 ft | 75 kts | 85° |
| 2026-04-24 01:53 | 43.04807 | -81.16727 | 1188 ft | 83 kts | 131° |
| 2026-04-24 01:54 | 43.04375 | -81.16224 | 1036 ft | 80 kts | 134° |
| 2026-04-24 01:54 | 43.03995 | -81.15732 | 925 ft | 70 kts | 138° |
| 2026-04-24 01:54 | 43.03740 | -81.15418 | 911 ft | 30 kts | 139° |
| 2026-04-24 01:54 | 43.03630 | -81.15290 | 914 ft | 13 kts | 142° |
| 2026-04-24 01:55 | 43.03564 | -81.15308 | 914 ft | 12 kts | 228° |
| 2026-04-24 01:55 | 43.03506 | -81.15398 | 911 ft | 11 kts | 233° |
| 2026-04-24 01:55 | 43.03521 | -81.15473 | 909 ft | 5 kts | 319° |
| 2026-04-24 01:55 | 43.03521 | -81.15474 | 909 ft | 0 kts | 319° |
| 2026-04-24 01:56 | 43.03544 | -81.15502 | 908 ft | 12 kts | 317° |
| 2026-04-24 01:56 | 43.03625 | -81.15599 | 908 ft | 15 kts | 318° |
| 2026-04-24 01:57 | 43.03719 | -81.15712 | 907 ft | 20 kts | 318° |
| 2026-04-24 01:57 | 43.03819 | -81.15832 | 909 ft | 16 kts | 319° |
| 2026-04-24 01:57 | 43.03911 | -81.15942 | 910 ft | 21 kts | 320° |
| 2026-04-24 01:57 | 43.03964 | -81.16001 | 911 ft | 0 kts | 323° |
| 2026-04-24 01:58 | 43.03966 | -81.16003 | 911 ft | 0 kts | 322° |
| 2026-04-24 01:58 | 43.03967 | -81.16004 | 911 ft | 2 kts | 322° |
| 2026-04-24 01:58 | 43.04015 | -81.16015 | 914 ft | 13 kts | 4° |
| 2026-04-24 01:58 | 43.04114 | -81.15980 | 918 ft | 19 kts | 44° |
| 2026-04-24 01:59 | 43.04118 | -81.15868 | 916 ft | 15 kts | 144° |
| 2026-04-24 01:59 | 43.03983 | -81.15711 | 917 ft | 46 kts | 139° |
| 2026-04-24 01:59 | 43.03645 | -81.15290 | 952 ft | 79 kts | 133° |
| 2026-04-24 01:59 | 43.03217 | -81.14723 | 1080 ft | 90 kts | 140° |
| 2026-04-24 02:00 | 43.02800 | -81.14065 | 1155 ft | 96 kts | 111° |
| 2026-04-24 02:00 | 43.02938 | -81.13216 | 1094 ft | 96 kts | 49° |
| 2026-04-24 02:00 | 43.03528 | -81.13064 | 1119 ft | 87 kts | 330° |
| 2026-04-24 02:00 | 43.03959 | -81.13647 | 1089 ft | 85 kts | 310° |
| 2026-04-24 02:01 | 43.04352 | -81.14203 | 1182 ft | 80 kts | 322° |
| 2026-04-24 02:01 | 43.04773 | -81.14736 | 1209 ft | 81 kts | 314° |
| 2026-04-24 02:01 | 43.05121 | -81.15289 | 1233 ft | 77 kts | 307° |
| 2026-04-24 02:01 | 43.05473 | -81.15869 | 1269 ft | 79 kts | 316° |
| 2026-04-24 02:02 | 43.05834 | -81.16425 | 1345 ft | 78 kts | 320° |
| 2026-04-24 02:02 | 43.06252 | -81.16901 | 1372 ft | 79 kts | 331° |
| 2026-04-24 02:02 | 43.06753 | -81.17201 | 1450 ft | 79 kts | 351° |
| 2026-04-24 02:02 | 43.07229 | -81.17528 | 1456 ft | 78 kts | 292° |
| 2026-04-24 02:03 | 43.06604 | -81.18244 | 1335 ft | 78 kts | 162° |
| 2026-04-24 02:03 | 43.06100 | -81.18036 | 1334 ft | 72 kts | 159° |
| 2026-04-24 02:03 | 43.05701 | -81.17710 | 1300 ft | 66 kts | 141° |
| 2026-04-24 02:04 | 43.05337 | -81.17324 | 1232 ft | 68 kts | 142° |
| 2026-04-24 02:04 | 43.04981 | -81.16890 | 1198 ft | 69 kts | 137° |
| 2026-04-24 02:04 | 43.04604 | -81.16445 | 1099 ft | 76 kts | 139° |
| 2026-04-24 02:04 | 43.04193 | -81.15957 | 997 ft | 82 kts | 140° |
| 2026-04-24 02:05 | 43.03747 | -81.15434 | 912 ft | 82 kts | 142° |
| 2026-04-24 02:05 | 43.03344 | -81.14927 | 1092 ft | 80 kts | 136° |
| 2026-04-24 02:05 | 43.03023 | -81.14295 | 1219 ft | 87 kts | 101° |
| 2026-04-24 02:05 | 43.03226 | -81.13595 | 1240 ft | 81 kts | 33° |
| 2026-04-24 02:06 | 43.03796 | -81.13652 | 1216 ft | 86 kts | 333° |
| 2026-04-24 02:06 | 43.04230 | -81.14181 | 1234 ft | 83 kts | 313° |
| 2026-04-24 02:06 | 43.04590 | -81.14797 | 1292 ft | 84 kts | 307° |
| 2026-04-24 02:06 | 43.04950 | -81.15459 | 1341 ft | 87 kts | 312° |
| 2026-04-24 02:07 | 43.05402 | -81.16008 | 1410 ft | 88 kts | 317° |
| 2026-04-24 02:07 | 43.05846 | -81.16570 | 1527 ft | 82 kts | 317° |
| 2026-04-24 02:07 | 43.06288 | -81.17075 | 1542 ft | 80 kts | 326° |
| 2026-04-24 02:07 | 43.06714 | -81.17546 | 1550 ft | 77 kts | 320° |
| 2026-04-24 02:08 | 43.07127 | -81.17968 | 1603 ft | 75 kts | 334° |
| 2026-04-24 02:08 | 43.07387 | -81.18562 | 1592 ft | 83 kts | 253° |
| 2026-04-24 02:08 | 43.06961 | -81.19054 | 1488 ft | 87 kts | 176° |
| 2026-04-24 02:08 | 43.06439 | -81.18664 | 1405 ft | 86 kts | 137° |
| 2026-04-24 02:09 | 43.06012 | -81.18134 | 1363 ft | 81 kts | 140° |
| 2026-04-24 02:09 | 43.05611 | -81.17644 | 1314 ft | 74 kts | 138° |
| 2026-04-24 02:09 | 43.05239 | -81.17201 | 1270 ft | 72 kts | 140° |
| 2026-04-24 02:09 | 43.04859 | -81.16728 | 1194 ft | 77 kts | 139° |
| 2026-04-24 02:10 | 43.04450 | -81.16256 | 1097 ft | 77 kts | 144° |
| 2026-04-24 02:10 | 43.04050 | -81.15782 | 936 ft | 76 kts | 142° |
| 2026-04-24 02:10 | 43.03718 | -81.15444 | 911 ft | 43 kts | 142° |
| 2026-04-24 02:10 | 43.03433 | -81.15177 | 913 ft | 54 kts | 165° |
| 2026-04-24 02:11 | 43.03370 | -81.15062 | 914 ft | 6 kts | 341° |
| 2026-04-24 02:11 | 43.03373 | -81.15063 | 914 ft | 0 kts | 341° |
| 2026-04-24 02:15 | 43.03561 | -81.16314 | 907 ft | 0 kts | 264° |